createdAt,value
2022-11-03T19:41:56.052Z,57.43
2022-11-03T19:44:22.432Z,57.89
2022-11-03T19:46:51.065Z,58.25
2022-11-03T19:49:17.405Z,58.05
2022-11-03T19:51:43.840Z,58.02
2022-11-03T19:54:17.235Z,58.87
2022-11-03T19:56:43.961Z,58.27
2022-11-03T19:59:11.815Z,58.39
2022-11-03T20:01:38.218Z,58.37
2022-11-03T20:04:05.497Z,58.55
2022-11-03T20:06:34.124Z,58.48
2022-11-03T20:09:02.056Z,58.53
2022-11-03T20:11:28.384Z,58.48
2022-11-03T20:13:54.697Z,58.45
2022-11-03T20:16:21.057Z,58.53
2022-11-03T20:18:48.751Z,58.54
2022-11-03T20:21:16.970Z,58.62
2022-11-03T20:23:44.737Z,58.91
2022-11-03T20:26:16.267Z,59.20
2022-11-03T20:28:42.804Z,58.72
2022-11-03T20:31:11.664Z,58.93
2022-11-03T20:33:38.790Z,58.73
2022-11-03T20:36:06.065Z,58.76
2022-11-03T20:38:33.222Z,59.10
2022-11-03T20:41:03.885Z,59.43
2022-11-03T20:43:34.573Z,59.38
2022-11-03T20:46:01.470Z,59.09
2022-11-03T20:48:28.108Z,59.10
2022-11-03T20:50:54.764Z,59.38
2022-11-03T20:53:23.456Z,59.47
2022-11-03T20:55:51.015Z,59.40
2022-11-03T20:58:17.998Z,59.30
2022-11-03T21:00:45.917Z,59.52
2022-11-03T21:03:31.282Z,59.96
2022-11-03T21:06:01.748Z,59.28
2022-11-03T21:08:28.029Z,59.46
2022-11-03T21:10:54.468Z,59.42
2022-11-03T21:13:20.880Z,59.50
2022-11-03T21:16:23.668Z,59.64
2022-11-03T21:19:09.355Z,59.51
2022-11-03T21:21:35.670Z,58.96
2022-11-03T21:24:01.953Z,59.32
2022-11-03T21:26:28.263Z,59.55
2022-11-03T21:28:54.569Z,59.67
2022-11-03T21:31:20.891Z,59.78
2022-11-03T21:33:47.191Z,59.99
2022-11-03T21:36:13.526Z,59.99
2022-11-03T21:38:39.859Z,60.04
2022-11-03T21:41:26.623Z,60.28
2022-11-03T21:44:11.540Z,59.97
2022-11-03T21:46:38.604Z,60.13
2022-11-03T21:49:23.331Z,60.35
2022-11-03T21:51:49.642Z,60.06
2022-11-03T21:54:15.972Z,60.22
2022-11-03T21:56:42.330Z,60.27
2022-11-03T21:59:08.660Z,60.35
2022-11-03T22:01:35.092Z,60.43
2022-11-03T22:04:01.506Z,60.32
2022-11-03T22:06:28.119Z,60.47
2022-11-03T22:08:54.403Z,60.48
2022-11-03T22:11:23.457Z,60.66
2022-11-03T22:13:56.623Z,61.35
2022-11-03T22:16:42.374Z,60.78
2022-11-03T22:19:51.207Z,61.22
2022-11-03T22:22:36.010Z,60.57
2022-11-03T22:25:20.972Z,60.62
2022-11-03T22:27:47.426Z,60.65
2022-11-03T22:30:32.476Z,60.63
2022-11-03T22:32:58.863Z,60.88
2022-11-03T22:35:44.449Z,60.90
2022-11-03T22:38:13.431Z,61.12
2022-11-03T22:41:01.384Z,61.31
2022-11-03T22:43:46.474Z,61.11
2022-11-03T22:46:14.437Z,61.17
2022-11-03T22:48:40.937Z,61.04
2022-11-03T22:51:09.028Z,61.14
2022-11-03T22:53:55.410Z,61.44
2022-11-03T22:56:25.029Z,61.83
2022-11-03T22:58:51.864Z,61.69
2022-11-03T23:01:23.800Z,62.08
2022-11-03T23:03:50.312Z,61.53
2022-11-03T23:06:19.057Z,61.57
2022-11-03T23:08:47.248Z,61.89
2022-11-03T23:11:16.964Z,61.96
2022-11-03T23:13:43.867Z,61.94
2022-11-03T23:16:21.882Z,62.55
2022-11-03T23:19:07.541Z,61.77
2022-11-03T23:21:35.341Z,61.71
2022-11-03T23:24:20.362Z,61.61
2022-11-03T23:26:47.519Z,61.66
2022-11-03T23:29:14.958Z,61.70
2022-11-03T23:31:42.998Z,61.88
2022-11-03T23:34:10.564Z,62.11
2022-11-03T23:36:37.292Z,62.21
2022-11-03T23:39:04.720Z,62.14
2022-11-03T23:41:31.087Z,62.05
2022-11-03T23:43:57.852Z,62.45
2022-11-03T23:46:45.985Z,62.50
2022-11-03T23:49:13.625Z,62.32
2022-11-03T23:51:41.820Z,62.49
2022-11-03T23:54:10.525Z,62.48
2022-11-03T23:56:57.908Z,62.72
2022-11-03T23:59:25.146Z,62.21
